sensor_id;sensor_type;location;lat;lon;timestamp;pressure;altitude;pressure_sealevel;temperature;humidity
24962;BME280;12992;50.884;13.668;2023-02-01T00:00:35;97182.53;;;3.39;100.00
24962;BME280;12992;50.884;13.668;2023-02-01T00:03:00;97178.41;;;3.30;100.00
24962;BME280;12992;50.884;13.668;2023-02-01T00:05:26;97172.00;;;3.31;100.00
24962;BME280;12992;50.884;13.668;2023-02-01T00:07:51;97174.69;;;3.24;100.00
24962;BME280;12992;50.884;13.668;2023-02-01T00:10:16;97177.59;;;3.29;100.00
24962;BME280;12992;50.884;13.668;2023-02-01T00:12:42;97209.00;;;3.35;100.00
24962;BME280;12992;50.884;13.668;2023-02-01T00:15:08;97191.22;;;3.34;100.00
24962;BME280;12992;50.884;13.668;2023-02-01T00:17:33;97195.56;;;3.35;100.00
24962;BME280;12992;50.884;13.668;2023-02-01T00:19:58;97187.09;;;3.32;100.00
24962;BME280;12992;50.884;13.668;2023-02-01T00:22:24;97188.75;;;3.26;100.00
24962;BME280;12992;50.884;13.668;2023-02-01T00:24:49;97190.63;;;3.26;100.00
24962;BME280;12992;50.884;13.668;2023-02-01T00:27:15;97193.09;;;3.34;100.00
24962;BME280;12992;50.884;13.668;2023-02-01T00:29:43;97205.91;;;3.38;100.00
24962;BME280;12992;50.884;13.668;2023-02-01T00:32:09;97195.75;;;3.40;100.00
24962;BME280;12992;50.884;13.668;2023-02-01T00:34:35;97208.41;;;3.40;100.00
24962;BME280;12992;50.884;13.668;2023-02-01T00:37:00;97192.69;;;3.30;100.00
24962;BME280;12992;50.884;13.668;2023-02-01T00:39:26;97199.50;;;3.33;100.00
24962;BME280;12992;50.884;13.668;2023-02-01T00:41:51;97183.38;;;3.33;100.00
24962;BME280;12992;50.884;13.668;2023-02-01T00:44:16;97188.75;;;3.33;100.00
24962;BME280;12992;50.884;13.668;2023-02-01T00:46:42;97192.03;;;3.35;100.00
24962;BME280;12992;50.884;13.668;2023-02-01T00:49:07;97198.47;;;3.34;100.00
24962;BME280;12992;50.884;13.668;2023-02-01T00:51:34;97192.69;;;3.37;100.00
24962;BME280;12992;50.884;13.668;2023-02-01T00:54:00;97190.41;;;3.34;100.00
24962;BME280;12992;50.884;13.668;2023-02-01T00:56:25;97190.41;;;3.34;100.00
24962;BME280;12992;50.884;13.668;2023-02-01T00:58:53;97187.53;;;3.29;100.00
24962;BME280;12992;50.884;13.668;2023-02-01T01:01:21;97189.16;;;3.36;100.00
24962;BME280;12992;50.884;13.668;2023-02-01T01:03:49;97185.84;;;3.34;100.00
24962;BME280;12992;50.884;13.668;2023-02-01T01:06:18;97200.94;;;3.35;100.00
24962;BME280;12992;50.884;13.668;2023-02-01T01:08:44;97197.84;;;3.32;100.00
24962;BME280;12992;50.884;13.668;2023-02-01T01:11:15;97196.44;;;3.29;100.00
24962;BME280;12992;50.884;13.668;2023-02-01T01:13:41;97170.16;;;3.25;100.00
24962;BME280;12992;50.884;13.668;2023-02-01T01:16:08;97183.00;;;3.23;100.00
24962;BME280;12992;50.884;13.668;2023-02-01T01:18:35;97187.13;;;3.25;100.00
24962;BME280;12992;50.884;13.668;2023-02-01T01:21:00;97193.13;;;3.27;100.00
24962;BME280;12992;50.884;13.668;2023-02-01T01:23:27;97201.38;;;3.32;100.00
24962;BME280;12992;50.884;13.668;2023-02-01T01:25:53;97191.25;;;3.28;100.00
24962;BME280;12992;50.884;13.668;2023-02-01T01:28:18;97188.94;;;3.38;100.00
24962;BME280;12992;50.884;13.668;2023-02-01T01:30:44;97192.03;;;3.35;100.00
24962;BME280;12992;50.884;13.668;2023-02-01T01:33:09;97174.88;;;3.36;100.00
24962;BME280;12992;50.884;13.668;2023-02-01T01:35:35;97176.53;;;3.37;100.00
24962;BME280;12992;50.884;13.668;2023-02-01T01:38:01;97177.56;;;3.36;100.00
24962;BME280;12992;50.884;13.668;2023-02-01T01:40:27;97165.94;;;3.35;100.00
24962;BME280;12992;50.884;13.668;2023-02-01T01:42:53;97172.59;;;3.33;100.00
24962;BME280;12992;50.884;13.668;2023-02-01T01:45:24;97163.53;;;3.21;100.00
24962;BME280;12992;50.884;13.668;2023-02-01T01:47:55;97147.84;;;3.11;100.00
24962;BME280;12992;50.884;13.668;2023-02-01T01:50:29;97160.03;;;3.13;100.00
24962;BME280;12992;50.884;13.668;2023-02-01T01:52:57;97158.19;;;3.07;100.00
24962;BME280;12992;50.884;13.668;2023-02-01T01:55:25;97161.53;;;3.09;100.00
24962;BME280;12992;50.884;13.668;2023-02-01T01:57:57;97154.28;;;3.10;100.00
24962;BME280;12992;50.884;13.668;2023-02-01T02:00:24;97154.91;;;3.05;100.00
24962;BME280;12992;50.884;13.668;2023-02-01T02:02:56;97135.47;;;3.03;100.00
24962;BME280;12992;50.884;13.668;2023-02-01T02:05:23;97141.66;;;3.10;100.00
24962;BME280;12992;50.884;13.668;2023-02-01T02:07:50;97147.66;;;3.06;100.00
24962;BME280;12992;50.884;13.668;2023-02-01T02:10:17;97136.69;;;3.07;100.00
24962;BME280;12992;50.884;13.668;2023-02-01T02:12:46;97138.16;;;3.03;100.00
24962;BME280;12992;50.884;13.668;2023-02-01T02:15:15;97146.84;;;3.05;100.00
24962;BME280;12992;50.884;13.668;2023-02-01T02:17:58;97154.06;;;3.05;100.00
24962;BME280;12992;50.884;13.668;2023-02-01T02:26:34;97143.69;;;3.08;100.00
24962;BME280;12992;50.884;13.668;2023-02-01T02:34:47;97152.41;;;3.10;100.00
24962;BME280;12992;50.884;13.668;2023-02-01T02:37:53;97146.81;;;3.12;100.00
24962;BME280;12992;50.884;13.668;2023-02-01T02:40:46;97141.84;;;3.09;100.00
24962;BME280;12992;50.884;13.668;2023-02-01T02:43:21;97140.41;;;3.06;100.00
24962;BME280;12992;50.884;13.668;2023-02-01T02:46:21;97125.09;;;3.07;100.00
24962;BME280;12992;50.884;13.668;2023-02-01T02:49:13;97122.00;;;3.03;100.00
24962;BME280;12992;50.884;13.668;2023-02-01T02:51:49;97117.69;;;3.02;100.00
24962;BME280;12992;50.884;13.668;2023-02-01T02:54:40;97121.34;;;3.08;100.00
24962;BME280;12992;50.884;13.668;2023-02-01T02:57:28;97121.56;;;3.06;100.00
24962;BME280;12992;50.884;13.668;2023-02-01T03:00:16;97113.75;;;2.98;100.00
24962;BME280;12992;50.884;13.668;2023-02-01T03:03:01;97102.56;;;3.01;100.00
24962;BME280;12992;50.884;13.668;2023-02-01T03:05:47;97104.59;;;3.06;100.00
24962;BME280;12992;50.884;13.668;2023-02-01T03:08:24;97108.13;;;3.06;100.00
24962;BME280;12992;50.884;13.668;2023-02-01T03:11:06;97116.81;;;3.08;100.00
24962;BME280;12992;50.884;13.668;2023-02-01T03:13:53;97118.88;;;3.06;100.00
24962;BME280;12992;50.884;13.668;2023-02-01T03:19:09;97114.31;;;3.13;100.00
24962;BME280;12992;50.884;13.668;2023-02-01T03:21:47;97112.22;;;3.16;100.00
24962;BME280;12992;50.884;13.668;2023-02-01T03:24:26;97122.38;;;3.13;100.00
24962;BME280;12992;50.884;13.668;2023-02-01T03:27:24;97110.56;;;3.15;100.00
24962;BME280;12992;50.884;13.668;2023-02-01T03:30:15;97106.03;;;3.08;100.00
24962;BME280;12992;50.884;13.668;2023-02-01T03:32:45;97125.06;;;3.13;100.00
24962;BME280;12992;50.884;13.668;2023-02-01T03:35:37;97111.22;;;3.10;100.00
24962;BME280;12992;50.884;13.668;2023-02-01T03:38:29;97106.69;;;3.10;100.00
24962;BME280;12992;50.884;13.668;2023-02-01T03:41:06;97116.16;;;3.20;100.00
24962;BME280;12992;50.884;13.668;2023-02-01T03:43:43;97113.69;;;3.18;100.00
24962;BME280;12992;50.884;13.668;2023-02-01T03:46:17;97113.25;;;3.15;100.00
24962;BME280;12992;50.884;13.668;2023-02-01T03:48:44;97128.78;;;3.19;100.00
24962;BME280;12992;50.884;13.668;2023-02-01T03:51:10;97122.97;;;3.16;100.00
24962;BME280;12992;50.884;13.668;2023-02-01T03:53:37;97116.38;;;3.18;100.00
24962;BME280;12992;50.884;13.668;2023-02-01T03:56:05;97115.72;;;3.23;100.00
24962;BME280;12992;50.884;13.668;2023-02-01T03:58:31;97119.00;;;3.25;100.00
24962;BME280;12992;50.884;13.668;2023-02-01T04:00:58;97117.97;;;3.26;100.00
24962;BME280;12992;50.884;13.668;2023-02-01T04:03:24;97107.25;;;3.19;100.00
24962;BME280;12992;50.884;13.668;2023-02-01T04:05:51;97098.75;;;3.22;100.00
24962;BME280;12992;50.884;13.668;2023-02-01T04:08:19;97108.25;;;3.25;100.00
24962;BME280;12992;50.884;13.668;2023-02-01T04:10:44;97104.34;;;3.21;100.00
24962;BME280;12992;50.884;13.668;2023-02-01T04:13:09;97098.16;;;3.20;100.00
24962;BME280;12992;50.884;13.668;2023-02-01T04:15:35;97101.81;;;3.26;100.00
24962;BME280;12992;50.884;13.668;2023-02-01T04:18:00;97092.53;;;3.22;100.00
24962;BME280;12992;50.884;13.668;2023-02-01T04:20:26;97086.97;;;3.17;100.00
24962;BME280;12992;50.884;13.668;2023-02-01T04:22:51;97096.28;;;3.21;100.00
24962;BME280;12992;50.884;13.668;2023-02-01T04:25:17;97089.84;;;3.22;100.00
24962;BME280;12992;50.884;13.668;2023-02-01T04:27:45;97093.16;;;3.24;100.00
24962;BME280;12992;50.884;13.668;2023-02-01T04:30:11;97076.41;;;3.22;100.00
24962;BME280;12992;50.884;13.668;2023-02-01T04:32:37;97080.28;;;3.26;100.00
24962;BME280;12992;50.884;13.668;2023-02-01T04:35:03;97068.47;;;3.27;100.00
24962;BME280;12992;50.884;13.668;2023-02-01T04:37:29;97067.28;;;3.23;100.00
24962;BME280;12992;50.884;13.668;2023-02-01T04:39:54;97071.63;;;3.24;100.00
24962;BME280;12992;50.884;13.668;2023-02-01T04:42:20;97076.56;;;3.27;100.00
24962;BME280;12992;50.884;13.668;2023-02-01T04:44:45;97068.31;;;3.22;100.00
24962;BME280;12992;50.884;13.668;2023-02-01T04:47:10;97072.44;;;3.24;100.00
24962;BME280;12992;50.884;13.668;2023-02-01T04:49:36;97057.56;;;3.22;100.00
24962;BME280;12992;50.884;13.668;2023-02-01T04:52:01;97036.72;;;3.10;100.00
24962;BME280;12992;50.884;13.668;2023-02-01T04:54:26;97027.19;;;3.08;100.00
24962;BME280;12992;50.884;13.668;2023-02-01T04:56:52;97029.84;;;3.15;100.00
24962;BME280;12992;50.884;13.668;2023-02-01T04:59:17;97031.94;;;3.12;100.00
24962;BME280;12992;50.884;13.668;2023-02-01T05:01:43;97026.94;;;3.16;100.00
24962;BME280;12992;50.884;13.668;2023-02-01T05:04:08;97019.91;;;3.15;100.00
24962;BME280;12992;50.884;13.668;2023-02-01T05:06:33;97016.41;;;3.15;100.00
24962;BME280;12992;50.884;13.668;2023-02-01T05:08:59;97010.88;;;3.09;100.00
24962;BME280;12992;50.884;13.668;2023-02-01T05:11:24;97010.88;;;3.09;100.00
24962;BME280;12992;50.884;13.668;2023-02-01T05:14:08;97007.47;;;3.21;99.00
24962;BME280;12992;50.884;13.668;2023-02-01T05:16:33;96993.81;;;3.22;98.65
24962;BME280;12992;50.884;13.668;2023-02-01T05:18:58;96976.66;;;3.17;99.41
24962;BME280;12992;50.884;13.668;2023-02-01T05:21:24;96994.44;;;3.18;99.61
24962;BME280;12992;50.884;13.668;2023-02-01T05:23:49;96990.16;;;3.10;99.97
24962;BME280;12992;50.884;13.668;2023-02-01T05:26:33;96982.69;;;3.12;99.96
24962;BME280;12992;50.884;13.668;2023-02-01T05:28:59;96987.84;;;3.13;99.90
24962;BME280;12992;50.884;13.668;2023-02-01T05:31:24;96984.78;;;3.10;100.00
24962;BME280;12992;50.884;13.668;2023-02-01T05:33:50;96973.19;;;3.09;100.00
24962;BME280;12992;50.884;13.668;2023-02-01T05:36:15;96972.75;;;3.12;100.00
24962;BME280;12992;50.884;13.668;2023-02-01T05:38:40;96965.50;;;3.13;100.00
24962;BME280;12992;50.884;13.668;2023-02-01T05:41:06;96971.53;;;3.08;100.00
24962;BME280;12992;50.884;13.668;2023-02-01T05:43:31;96966.78;;;3.10;100.00
24962;BME280;12992;50.884;13.668;2023-02-01T05:45:57;96964.91;;;3.11;100.00
24962;BME280;12992;50.884;13.668;2023-02-01T05:48:22;96968.19;;;3.13;100.00
24962;BME280;12992;50.884;13.668;2023-02-01T05:50:48;96970.06;;;3.12;100.00
24962;BME280;12992;50.884;13.668;2023-02-01T05:53:13;96962.00;;;3.12;100.00
24962;BME280;12992;50.884;13.668;2023-02-01T05:55:39;96960.34;;;3.11;100.00
24962;BME280;12992;50.884;13.668;2023-02-01T05:58:05;96958.28;;;3.07;100.00
24962;BME280;12992;50.884;13.668;2023-02-01T06:00:31;96955.38;;;3.08;100.00
24962;BME280;12992;50.884;13.668;2023-02-01T06:02:56;96959.75;;;3.09;100.00
24962;BME280;12992;50.884;13.668;2023-02-01T06:05:21;96965.28;;;3.15;100.00
24962;BME280;12992;50.884;13.668;2023-02-01T06:07:47;96955.94;;;3.17;100.00
24962;BME280;12992;50.884;13.668;2023-02-01T06:10:12;96957.81;;;3.17;100.00
24962;BME280;12992;50.884;13.668;2023-02-01T06:12:38;96953.31;;;3.10;100.00
24962;BME280;12992;50.884;13.668;2023-02-01T06:15:04;96947.94;;;3.10;100.00
24962;BME280;12992;50.884;13.668;2023-02-01T06:17:29;96963.19;;;3.17;100.00
24962;BME280;12992;50.884;13.668;2023-02-01T06:19:55;96951.19;;;3.19;100.00
24962;BME280;12992;50.884;13.668;2023-02-01T06:22:20;96951.19;;;3.19;100.00
24962;BME280;12992;50.884;13.668;2023-02-01T06:24:46;96958.81;;;3.22;100.00
24962;BME280;12992;50.884;13.668;2023-02-01T06:27:12;96952.44;;;3.17;100.00
24962;BME280;12992;50.884;13.668;2023-02-01T06:29:38;96950.38;;;3.19;100.00
24962;BME280;12992;50.884;13.668;2023-02-01T06:32:03;96954.06;;;3.18;100.00
24962;BME280;12992;50.884;13.668;2023-02-01T06:34:29;96951.22;;;3.12;100.00
24962;BME280;12992;50.884;13.668;2023-02-01T06:36:54;96956.44;;;3.07;100.00
24962;BME280;12992;50.884;13.668;2023-02-01T06:39:20;96953.97;;;3.06;100.00
24962;BME280;12992;50.884;13.668;2023-02-01T06:41:46;96959.56;;;3.04;100.00
24962;BME280;12992;50.884;13.668;2023-02-01T06:44:12;96956.28;;;3.02;100.00
24962;BME280;12992;50.884;13.668;2023-02-01T06:46:37;96958.34;;;3.00;100.00
24962;BME280;12992;50.884;13.668;2023-02-01T06:49:03;96957.91;;;3.03;100.00
24962;BME280;12992;50.884;13.668;2023-02-01T06:51:28;96958.78;;;2.97;100.00
24962;BME280;12992;50.884;13.668;2023-02-01T06:53:54;96974.06;;;3.03;100.00
24962;BME280;12992;50.884;13.668;2023-02-01T06:56:20;96967.84;;;3.03;100.00
24962;BME280;12992;50.884;13.668;2023-02-01T06:58:45;96966.03;;;2.97;100.00
24962;BME280;12992;50.884;13.668;2023-02-01T07:01:11;96963.56;;;2.95;100.00
24962;BME280;12992;50.884;13.668;2023-02-01T07:03:37;96961.91;;;2.94;100.00
24962;BME280;12992;50.884;13.668;2023-02-01T07:06:03;96959.59;;;2.98;100.00
24962;BME280;12992;50.884;13.668;2023-02-01T07:08:31;96957.56;;;2.93;100.00
24962;BME280;12992;50.884;13.668;2023-02-01T07:10:57;96965.41;;;2.95;100.00
24962;BME280;12992;50.884;13.668;2023-02-01T07:13:22;96952.22;;;2.87;100.00
24962;BME280;12992;50.884;13.668;2023-02-01T07:15:47;96963.22;;;2.85;100.00
24962;BME280;12992;50.884;13.668;2023-02-01T07:18:14;96949.81;;;2.72;100.00
24962;BME280;12992;50.884;13.668;2023-02-01T07:20:40;96949.22;;;2.70;100.00
24962;BME280;12992;50.884;13.668;2023-02-01T07:23:06;96951.09;;;2.69;100.00
24962;BME280;12992;50.884;13.668;2023-02-01T07:25:31;96948.84;;;2.66;100.00
24962;BME280;12992;50.884;13.668;2023-02-01T07:27:57;96941.63;;;2.53;100.00
24962;BME280;12992;50.884;13.668;2023-02-01T07:30:22;96931.78;;;2.47;100.00
24962;BME280;12992;50.884;13.668;2023-02-01T07:32:47;96947.47;;;2.50;100.00
24962;BME280;12992;50.884;13.668;2023-02-01T07:35:13;96947.47;;;2.44;100.00
24962;BME280;12992;50.884;13.668;2023-02-01T07:37:39;96942.75;;;2.39;100.00
24962;BME280;12992;50.884;13.668;2023-02-01T07:40:05;96946.06;;;2.41;100.00
24962;BME280;12992;50.884;13.668;2023-02-01T07:42:30;96945.44;;;2.39;100.00
24962;BME280;12992;50.884;13.668;2023-02-01T07:44:56;96954.72;;;2.43;100.00
24962;BME280;12992;50.884;13.668;2023-02-01T07:47:21;96956.38;;;2.44;100.00
24962;BME280;12992;50.884;13.668;2023-02-01T07:49:46;96958.66;;;2.47;100.00
24962;BME280;12992;50.884;13.668;2023-02-01T07:52:12;96962.09;;;2.54;100.00
24962;BME280;12992;50.884;13.668;2023-02-01T07:54:40;96965.22;;;2.58;100.00
24962;BME280;12992;50.884;13.668;2023-02-01T07:57:06;96957.97;;;2.59;100.00
24962;BME280;12992;50.884;13.668;2023-02-01T07:59:31;96943.03;;;2.63;100.00
24962;BME280;12992;50.884;13.668;2023-02-01T08:01:56;96953.16;;;2.67;100.00
24962;BME280;12992;50.884;13.668;2023-02-01T08:04:22;96954.00;;;2.68;100.00
24962;BME280;12992;50.884;13.668;2023-02-01T08:06:47;96940.13;;;2.64;100.00
24962;BME280;12992;50.884;13.668;2023-02-01T08:09:12;96943.66;;;2.65;100.00
24962;BME280;12992;50.884;13.668;2023-02-01T08:11:38;96933.78;;;2.59;100.00
24962;BME280;12992;50.884;13.668;2023-02-01T08:14:04;96923.88;;;2.52;100.00
24962;BME280;12992;50.884;13.668;2023-02-01T08:16:30;96932.50;;;2.61;100.00
24962;BME280;12992;50.884;13.668;2023-02-01T08:18:55;96921.38;;;2.58;100.00
24962;BME280;12992;50.884;13.668;2023-02-01T08:21:23;96938.25;;;2.71;100.00
24962;BME280;12992;50.884;13.668;2023-02-01T08:23:49;96934.03;;;2.82;100.00
24962;BME280;12992;50.884;13.668;2023-02-01T08:26:21;96939.59;;;2.87;100.00
24962;BME280;12992;50.884;13.668;2023-02-01T08:28:51;96941.00;;;2.96;100.00
24962;BME280;12992;50.884;13.668;2023-02-01T08:31:19;96928.16;;;2.98;100.00
24962;BME280;12992;50.884;13.668;2023-02-01T08:33:49;96929.31;;;3.09;100.00
24962;BME280;12992;50.884;13.668;2023-02-01T08:36:14;96914.16;;;3.15;100.00
24962;BME280;12992;50.884;13.668;2023-02-01T08:38:40;96922.41;;;3.20;100.00
24962;BME280;12992;50.884;13.668;2023-02-01T08:41:11;96932.13;;;3.21;100.00
24962;BME280;12992;50.884;13.668;2023-02-01T08:43:37;96899.66;;;3.16;100.00
24962;BME280;12992;50.884;13.668;2023-02-01T08:46:03;96924.09;;;3.14;100.00
24962;BME280;12992;50.884;13.668;2023-02-01T08:48:29;96912.78;;;3.05;100.00
24962;BME280;12992;50.884;13.668;2023-02-01T08:50:55;96901.91;;;2.94;100.00
24962;BME280;12992;50.884;13.668;2023-02-01T08:53:22;96888.16;;;2.77;100.00
24962;BME280;12992;50.884;13.668;2023-02-01T08:55:47;96895.63;;;2.75;100.00
24962;BME280;12992;50.884;13.668;2023-02-01T08:58:13;96892.16;;;2.68;100.00
24962;BME280;12992;50.884;13.668;2023-02-01T09:00:39;96896.25;;;2.70;100.00
24962;BME280;12992;50.884;13.668;2023-02-01T09:03:05;96903.69;;;2.75;100.00
24962;BME280;12992;50.884;13.668;2023-02-01T09:05:30;96911.75;;;2.75;100.00
24962;BME280;12992;50.884;13.668;2023-02-01T09:07:56;96915.66;;;2.79;100.00
24962;BME280;12992;50.884;13.668;2023-02-01T09:10:21;96909.22;;;2.80;100.00
24962;BME280;12992;50.884;13.668;2023-02-01T09:12:46;96903.84;;;2.80;100.00
24962;BME280;12992;50.884;13.668;2023-02-01T09:15:11;96921.47;;;2.76;100.00
24962;BME280;12992;50.884;13.668;2023-02-01T09:17:37;96910.75;;;2.69;100.00
24962;BME280;12992;50.884;13.668;2023-02-01T09:20:03;96898.41;;;2.55;100.00
24962;BME280;12992;50.884;13.668;2023-02-01T09:22:29;96897.84;;;2.46;100.00
24962;BME280;12992;50.884;13.668;2023-02-01T09:24:54;96893.97;;;2.36;100.00
24962;BME280;12992;50.884;13.668;2023-02-01T09:27:19;96893.75;;;2.37;100.00
24962;BME280;12992;50.884;13.668;2023-02-01T09:29:45;96906.16;;;2.38;100.00
24962;BME280;12992;50.884;13.668;2023-02-01T09:32:14;96917.28;;;2.48;100.00
24962;BME280;12992;50.884;13.668;2023-02-01T09:34:39;96926.41;;;2.47;100.00
24962;BME280;12992;50.884;13.668;2023-02-01T09:37:05;96936.09;;;2.48;100.00
24962;BME280;12992;50.884;13.668;2023-02-01T09:39:30;96929.72;;;2.43;100.00
24962;BME280;12992;50.884;13.668;2023-02-01T09:47:31;96897.25;;;1.93;100.00
24962;BME280;12992;50.884;13.668;2023-02-01T09:50:15;96897.69;;;1.83;100.00
24962;BME280;12992;50.884;13.668;2023-02-01T09:52:55;96902.44;;;1.81;100.00
24962;BME280;12992;50.884;13.668;2023-02-01T09:55:34;96897.53;;;1.65;100.00
24962;BME280;12992;50.884;13.668;2023-02-01T09:58:25;96916.31;;;1.65;100.00
24962;BME280;12992;50.884;13.668;2023-02-01T10:00:55;96925.00;;;1.54;100.00
24962;BME280;12992;50.884;13.668;2023-02-01T10:03:23;96923.16;;;1.54;100.00
24962;BME280;12992;50.884;13.668;2023-02-01T10:06:16;96940.69;;;1.57;100.00
24962;BME280;12992;50.884;13.668;2023-02-01T10:11:52;96935.34;;;1.44;100.00
24962;BME280;12992;50.884;13.668;2023-02-01T10:14:45;96942.78;;;1.35;100.00
24962;BME280;12992;50.884;13.668;2023-02-01T10:22:41;96968.75;;;1.41;100.00
24962;BME280;12992;50.884;13.668;2023-02-01T10:25:17;96966.94;;;1.41;100.00
24962;BME280;12992;50.884;13.668;2023-02-01T10:27:45;96976.19;;;1.46;100.00
24962;BME280;12992;50.884;13.668;2023-02-01T10:32:42;96996.44;;;1.55;100.00
24962;BME280;12992;50.884;13.668;2023-02-01T10:35:31;97006.75;;;1.58;100.00
24962;BME280;12992;50.884;13.668;2023-02-01T10:38:00;97003.66;;;1.61;100.00
24962;BME280;12992;50.884;13.668;2023-02-01T10:40:27;97013.78;;;1.72;100.00
24962;BME280;12992;50.884;13.668;2023-02-01T10:42:56;97010.28;;;1.78;100.00
24962;BME280;12992;50.884;13.668;2023-02-01T10:45:25;97019.31;;;1.84;100.00
24962;BME280;12992;50.884;13.668;2023-02-01T10:47:52;97021.63;;;1.87;100.00
24962;BME280;12992;50.884;13.668;2023-02-01T10:50:39;97036.69;;;1.94;100.00
24962;BME280;12992;50.884;13.668;2023-02-01T10:53:18;97043.91;;;2.01;100.00
24962;BME280;12992;50.884;13.668;2023-02-01T10:55:50;97052.34;;;2.11;100.00
24962;BME280;12992;50.884;13.668;2023-02-01T10:58:20;97049.25;;;2.14;100.00
24962;BME280;12992;50.884;13.668;2023-02-01T11:01:08;97054.81;;;2.19;100.00
24962;BME280;12992;50.884;13.668;2023-02-01T11:03:42;97045.53;;;2.21;100.00
24962;BME280;12992;50.884;13.668;2023-02-01T11:06:24;97051.09;;;2.26;100.00
24962;BME280;12992;50.884;13.668;2023-02-01T11:08:53;97069.66;;;2.41;100.00
24962;BME280;12992;50.884;13.668;2023-02-01T11:11:19;97060.34;;;2.57;100.00
24962;BME280;12992;50.884;13.668;2023-02-01T11:14:01;97061.09;;;2.64;100.00
24962;BME280;12992;50.884;13.668;2023-02-01T11:16:39;97070.19;;;2.70;100.00
24962;BME280;12992;50.884;13.668;2023-02-01T11:19:05;97077.00;;;2.79;100.00
24962;BME280;12992;50.884;13.668;2023-02-01T11:21:32;97072.84;;;2.83;100.00
24962;BME280;12992;50.884;13.668;2023-02-01T11:24:03;97059.81;;;2.87;100.00
24962;BME280;12992;50.884;13.668;2023-02-01T11:26:31;97062.25;;;2.95;100.00
24962;BME280;12992;50.884;13.668;2023-02-01T11:29:04;97049.78;;;3.00;100.00
24962;BME280;12992;50.884;13.668;2023-02-01T11:31:34;97046.47;;;3.05;100.00
24962;BME280;12992;50.884;13.668;2023-02-01T11:34:10;97053.94;;;3.03;100.00
24962;BME280;12992;50.884;13.668;2023-02-01T11:36:38;97037.13;;;3.07;100.00
24962;BME280;12992;50.884;13.668;2023-02-01T11:41:57;97040.47;;;3.09;100.00
24962;BME280;12992;50.884;13.668;2023-02-01T11:44:38;97029.63;;;3.16;100.00
24962;BME280;12992;50.884;13.668;2023-02-01T11:47:30;97035.22;;;3.21;100.00
24962;BME280;12992;50.884;13.668;2023-02-01T11:50:01;97022.34;;;3.23;100.00
24962;BME280;12992;50.884;13.668;2023-02-01T11:52:50;97014.47;;;3.28;100.00
24962;BME280;12992;50.884;13.668;2023-02-01T11:55:37;97021.88;;;3.33;100.00
24962;BME280;12992;50.884;13.668;2023-02-01T12:03:43;97006.81;;;3.57;100.00
24962;BME280;12992;50.884;13.668;2023-02-01T12:06:23;97012.78;;;3.59;100.00
24962;BME280;12992;50.884;13.668;2023-02-01T12:09:28;96983.84;;;3.54;100.00
24962;BME280;12992;50.884;13.668;2023-02-01T12:12:08;96999.38;;;3.52;100.00
24962;BME280;12992;50.884;13.668;2023-02-01T12:15:10;96986.34;;;3.49;100.00
24962;BME280;12992;50.884;13.668;2023-02-01T12:18:10;96991.16;;;3.47;100.00
24962;BME280;12992;50.884;13.668;2023-02-01T12:21:04;96970.25;;;3.42;100.00
24962;BME280;12992;50.884;13.668;2023-02-01T12:23:43;96979.94;;;3.50;100.00
24962;BME280;12992;50.884;13.668;2023-02-01T12:26:42;96969.75;;;3.52;100.00
24962;BME280;12992;50.884;13.668;2023-02-01T12:38:04;96967.78;;;3.66;100.00
24962;BME280;12992;50.884;13.668;2023-02-01T12:40:55;96974.59;;;3.68;100.00
24962;BME280;12992;50.884;13.668;2023-02-01T12:43:45;96975.66;;;3.67;100.00
24962;BME280;12992;50.884;13.668;2023-02-01T12:46:18;96967.84;;;3.59;100.00
24962;BME280;12992;50.884;13.668;2023-02-01T12:49:00;96957.91;;;3.60;100.00
24962;BME280;12992;50.884;13.668;2023-02-01T12:51:31;96962.63;;;3.64;100.00
24962;BME280;12992;50.884;13.668;2023-02-01T12:54:11;96952.91;;;3.63;100.00
24962;BME280;12992;50.884;13.668;2023-02-01T12:56:53;96972.50;;;3.70;100.00
24962;BME280;12992;50.884;13.668;2023-02-01T13:01:57;96971.78;;;3.82;100.00
24962;BME280;12992;50.884;13.668;2023-02-01T13:04:33;96963.94;;;3.80;100.00
24962;BME280;12992;50.884;13.668;2023-02-01T13:09:39;96960.41;;;3.80;100.00
24962;BME280;12992;50.884;13.668;2023-02-01T13:12:16;96953.59;;;3.77;100.00
24962;BME280;12992;50.884;13.668;2023-02-01T13:14:47;96939.31;;;3.77;100.00
24962;BME280;12992;50.884;13.668;2023-02-01T13:17:22;96942.00;;;3.77;100.00
24962;BME280;12992;50.884;13.668;2023-02-01T13:20:19;96949.56;;;3.86;100.00
24962;BME280;12992;50.884;13.668;2023-02-01T13:23:09;96955.13;;;3.91;100.00
24962;BME280;12992;50.884;13.668;2023-02-01T13:25:46;96951.75;;;3.96;100.00
24962;BME280;12992;50.884;13.668;2023-02-01T13:28:27;96958.13;;;4.02;100.00
24962;BME280;12992;50.884;13.668;2023-02-01T13:36:31;96932.16;;;4.07;100.00
24962;BME280;12992;50.884;13.668;2023-02-01T13:39:12;96925.56;;;4.03;100.00
24962;BME280;12992;50.884;13.668;2023-02-01T13:44:31;96920.41;;;4.02;100.00
24962;BME280;12992;50.884;13.668;2023-02-01T13:47:02;96920.56;;;4.07;100.00
24962;BME280;12992;50.884;13.668;2023-02-01T13:49:31;96920.56;;;4.07;100.00
24962;BME280;12992;50.884;13.668;2023-02-01T13:51:58;96917.78;;;4.13;99.54
24962;BME280;12992;50.884;13.668;2023-02-01T13:54:58;96901.03;;;4.11;98.73
24962;BME280;12992;50.884;13.668;2023-02-01T13:57:44;96904.94;;;4.15;97.61
24962;BME280;12992;50.884;13.668;2023-02-01T14:08:22;96888.25;;;4.07;97.58
24962;BME280;12992;50.884;13.668;2023-02-01T14:10:57;96889.78;;;4.14;96.89
24962;BME280;12992;50.884;13.668;2023-02-01T14:13:37;96877.97;;;4.15;95.19
24962;BME280;12992;50.884;13.668;2023-02-01T14:23:46;96884.63;;;4.13;95.19
24962;BME280;12992;50.884;13.668;2023-02-01T14:26:17;96872.66;;;4.09;96.14